createdAt,value
2023-05-01T00:01:45.487Z,5.18
2023-05-01T00:04:14.194Z,4.63
2023-05-01T00:06:41.766Z,4.20
2023-05-01T00:09:10.512Z,4.43
2023-05-01T00:11:37.814Z,4.15
2023-05-01T00:14:05.074Z,4.35
2023-05-01T00:16:32.308Z,4.10
2023-05-01T00:18:59.628Z,3.80
2023-05-01T00:21:28.413Z,4.13
2023-05-01T00:23:55.747Z,4.15
2023-05-01T00:26:23.078Z,3.90
2023-05-01T00:28:50.657Z,3.92
2023-05-01T00:31:18.323Z,3.83
2023-05-01T00:33:46.231Z,4.40
2023-05-01T00:36:13.458Z,3.67
2023-05-01T00:38:42.014Z,3.85
2023-05-01T00:41:09.259Z,3.85
2023-05-01T00:43:36.877Z,3.83
2023-05-01T00:46:04.244Z,4.07
2023-05-01T00:48:31.542Z,4.38
2023-05-01T00:51:00.605Z,3.67
2023-05-01T00:53:28.300Z,4.30
2023-05-01T00:55:58.086Z,3.80
2023-05-01T00:58:25.371Z,3.97
2023-05-01T01:00:53.019Z,4.18
2023-05-01T01:03:20.576Z,4.10
2023-05-01T01:05:54.192Z,4.13
2023-05-01T01:08:31.304Z,4.20
2023-05-01T01:11:08.952Z,4.20
2023-05-01T01:13:42.540Z,4.18
2023-05-01T01:16:16.002Z,4.20
2023-05-01T01:18:50.364Z,3.90
2023-05-01T01:21:24.108Z,4.15
2023-05-01T01:24:12.602Z,4.50
2023-05-01T01:26:58.733Z,5.30
2023-05-01T01:29:51.225Z,4.25
2023-05-01T01:32:43.058Z,4.80
2023-05-01T01:35:18.622Z,4.40
2023-05-01T01:37:51.875Z,4.43
2023-05-01T01:40:23.805Z,5.18
2023-05-01T01:42:55.368Z,5.13
2023-05-01T01:45:25.712Z,5.13
2023-05-01T01:47:54.702Z,5.38
2023-05-01T01:50:26.979Z,5.77
2023-05-01T01:52:54.948Z,5.15
2023-05-01T01:55:27.637Z,5.22
2023-05-01T01:57:56.131Z,5.00
2023-05-01T02:00:23.906Z,6.22
2023-05-01T02:02:53.712Z,5.60
2023-05-01T02:05:24.882Z,5.97
2023-05-01T02:07:53.026Z,6.05
2023-05-01T02:10:22.704Z,5.80
2023-05-01T02:12:52.226Z,5.88
2023-05-01T02:15:21.221Z,5.97
2023-05-01T02:17:50.533Z,5.97
2023-05-01T02:20:18.485Z,6.18
2023-05-01T02:22:48.287Z,6.00
2023-05-01T02:25:16.699Z,5.70
2023-05-01T02:27:47.270Z,5.73
2023-05-01T02:30:16.984Z,6.22
2023-05-01T02:32:44.234Z,6.25
2023-05-01T02:35:11.523Z,6.70
2023-05-01T02:37:39.725Z,7.03
2023-05-01T02:40:11.339Z,6.87
2023-05-01T02:42:39.536Z,6.78
2023-05-01T02:45:09.318Z,6.88
2023-05-01T02:47:39.193Z,6.78
2023-05-01T02:50:08.679Z,7.03
2023-05-01T02:52:37.348Z,6.97
2023-05-01T02:55:26.774Z,7.18
2023-05-01T02:57:58.212Z,6.57
2023-05-01T03:00:25.462Z,6.63
2023-05-01T03:02:53.118Z,6.35
2023-05-01T03:05:20.333Z,5.77
2023-05-01T03:07:48.404Z,6.13
2023-05-01T03:10:15.665Z,6.03
2023-05-01T03:12:44.390Z,6.03
2023-05-01T03:15:12.594Z,5.97
2023-05-01T03:17:39.839Z,6.50
2023-05-01T03:20:09.724Z,5.82
2023-05-01T03:22:36.996Z,6.10
2023-05-01T03:25:04.702Z,5.30
2023-05-01T03:27:32.905Z,5.45
2023-05-01T03:30:01.440Z,5.63
2023-05-01T03:32:32.110Z,5.13
2023-05-01T03:34:59.631Z,5.82
2023-05-01T03:37:27.872Z,5.40
2023-05-01T03:39:55.431Z,5.43
2023-05-01T03:42:41.117Z,5.83
2023-05-01T03:45:17.399Z,5.75
2023-05-01T03:47:44.751Z,5.40
2023-05-01T03:50:12.908Z,5.50
2023-05-01T03:52:41.975Z,6.35
2023-05-01T03:55:09.594Z,5.77
2023-05-01T03:57:41.486Z,5.78
2023-05-01T04:00:11.711Z,6.00
2023-05-01T04:02:47.784Z,5.35
2023-05-01T04:05:21.476Z,6.00
2023-05-01T04:07:53.040Z,5.67
2023-05-01T04:10:20.259Z,5.90
2023-05-01T04:13:01.215Z,5.53
2023-05-01T04:15:28.498Z,5.47
2023-05-01T04:17:57.522Z,5.78
2023-05-01T04:20:24.846Z,5.43
2023-05-01T04:22:52.692Z,5.40
2023-05-01T04:25:20.009Z,5.07
2023-05-01T04:27:50.005Z,5.40
2023-05-01T04:30:17.572Z,5.60
2023-05-01T04:32:45.488Z,5.80
2023-05-01T04:35:14.543Z,5.80
2023-05-01T04:37:44.345Z,5.00
2023-05-01T04:40:12.853Z,5.13
2023-05-01T04:42:40.860Z,4.97
2023-05-01T04:45:11.883Z,5.30
2023-05-01T04:47:39.182Z,4.85
2023-05-01T04:50:07.170Z,5.05
2023-05-01T04:52:35.955Z,5.20
2023-05-01T04:55:04.954Z,5.32
2023-05-01T04:57:35.967Z,4.50
2023-05-01T05:00:07.960Z,5.30
2023-05-01T05:02:42.238Z,4.50
2023-05-01T05:05:10.896Z,4.53
2023-05-01T05:07:39.855Z,5.13
2023-05-01T05:10:26.533Z,5.30
2023-05-01T05:13:10.109Z,5.15
2023-05-01T05:15:38.951Z,4.40
2023-05-01T05:18:08.526Z,4.55
2023-05-01T05:20:38.525Z,4.55
2023-05-01T05:23:08.446Z,4.80
2023-05-01T05:25:36.047Z,5.03
2023-05-01T05:28:03.294Z,4.43
2023-05-01T05:30:30.614Z,4.97
2023-05-01T05:32:58.317Z,4.90
2023-05-01T05:35:25.692Z,4.83
2023-05-01T05:37:53.276Z,4.53
2023-05-01T05:40:21.798Z,4.18
2023-05-01T05:42:54.912Z,4.88
2023-05-01T05:45:23.372Z,4.90
2023-05-01T05:47:50.678Z,4.70
2023-05-01T05:50:18.613Z,4.72
2023-05-01T05:52:47.055Z,4.53
2023-05-01T05:55:14.444Z,4.20
2023-05-01T05:57:49.974Z,3.55
2023-05-01T06:00:18.907Z,5.03
2023-05-01T06:02:49.819Z,4.03
2023-05-01T06:05:19.639Z,4.68
2023-05-01T06:07:47.071Z,4.22
2023-05-01T06:10:14.278Z,3.78
2023-05-01T06:12:53.400Z,4.23
2023-05-01T06:15:28.426Z,4.25
2023-05-01T06:17:57.020Z,3.92
2023-05-01T06:20:24.427Z,4.30
2023-05-01T06:22:52.213Z,4.40
2023-05-01T06:25:27.107Z,4.10
2023-05-01T06:27:54.337Z,3.65
2023-05-01T06:30:23.397Z,4.57
2023-05-01T06:32:51.943Z,4.30
2023-05-01T06:35:21.000Z,4.03
2023-05-01T06:37:48.272Z,3.37
2023-05-01T06:40:15.823Z,3.20
2023-05-01T06:42:43.112Z,3.30
2023-05-01T06:45:10.614Z,3.70
2023-05-01T06:47:37.835Z,3.78
2023-05-01T06:50:08.056Z,3.60
2023-05-01T06:52:35.343Z,3.70
2023-05-01T06:55:03.737Z,4.00
2023-05-01T06:57:31.076Z,3.85
2023-05-01T06:59:58.601Z,3.33
2023-05-01T07:02:26.634Z,3.10
2023-05-01T07:04:53.866Z,3.20
2023-05-01T07:07:23.309Z,3.20
2023-05-01T07:09:50.654Z,3.53
2023-05-01T07:12:17.931Z,3.35
2023-05-01T07:14:45.150Z,3.30
2023-05-01T07:17:12.722Z,3.05
2023-05-01T07:19:40.232Z,3.30
2023-05-01T07:22:07.589Z,3.35
2023-05-01T07:24:36.412Z,3.28
2023-05-01T07:27:03.988Z,2.93
2023-05-01T07:29:31.351Z,3.75
2023-05-01T07:31:58.958Z,3.30
2023-05-01T07:34:26.280Z,3.10
2023-05-01T07:36:53.538Z,3.22
2023-05-01T07:39:21.213Z,3.50
2023-05-01T07:41:49.722Z,3.45
2023-05-01T07:44:19.500Z,3.30
2023-05-01T07:46:47.164Z,2.72
2023-05-01T07:49:14.527Z,3.38
2023-05-01T07:51:42.696Z,3.50
2023-05-01T07:54:10.318Z,3.22
2023-05-01T07:56:37.890Z,2.80
2023-05-01T07:59:06.613Z,3.00
2023-05-01T08:01:34.919Z,3.38
2023-05-01T08:04:02.611Z,3.23
2023-05-01T08:06:32.874Z,2.95
2023-05-01T08:09:00.625Z,2.90
2023-05-01T08:11:29.430Z,3.00
2023-05-01T08:13:56.946Z,3.13
2023-05-01T08:16:25.965Z,3.10
2023-05-01T08:18:53.413Z,3.20
2023-05-01T08:21:21.384Z,3.30
2023-05-01T08:23:51.080Z,3.13
2023-05-01T08:26:19.212Z,2.85
2023-05-01T08:28:48.059Z,2.80
2023-05-01T08:31:15.640Z,2.90
2023-05-01T08:33:44.390Z,2.50
2023-05-01T08:36:12.281Z,3.10
2023-05-01T08:38:39.777Z,2.92
2023-05-01T08:41:07.420Z,2.80
2023-05-01T08:43:35.231Z,3.05
2023-05-01T08:46:08.169Z,2.70
2023-05-01T08:48:36.810Z,2.60
2023-05-01T08:51:06.203Z,2.78
2023-05-01T08:53:34.353Z,2.57
2023-05-01T08:56:05.882Z,2.40
2023-05-01T08:58:35.409Z,2.55
2023-05-01T09:01:03.393Z,2.92
2023-05-01T09:03:32.790Z,2.53
2023-05-01T09:06:02.560Z,2.20
2023-05-01T09:08:31.521Z,2.80
2023-05-01T09:11:00.820Z,2.47
2023-05-01T09:13:28.265Z,2.33
2023-05-01T09:15:55.562Z,2.35
2023-05-01T09:18:23.648Z,2.07
2023-05-01T09:20:50.941Z,2.50
2023-05-01T09:23:20.107Z,2.42
2023-05-01T09:25:51.403Z,2.67
2023-05-01T09:28:19.276Z,2.80
2023-05-01T09:30:46.733Z,2.70
2023-05-01T09:33:16.876Z,2.45
2023-05-01T09:35:51.652Z,2.42
2023-05-01T09:38:23.051Z,2.78
2023-05-01T09:40:53.985Z,2.50
2023-05-01T09:43:26.630Z,2.80
2023-05-01T09:46:01.513Z,2.50
2023-05-01T09:48:32.079Z,2.90
2023-05-01T09:51:01.631Z,2.65
2023-05-01T09:53:38.350Z,2.85
2023-05-01T09:56:07.599Z,3.40
2023-05-01T09:58:35.091Z,2.90
2023-05-01T10:01:02.648Z,3.00
2023-05-01T10:03:30.982Z,3.40
2023-05-01T10:06:00.857Z,3.45
2023-05-01T10:08:44.615Z,3.23
2023-05-01T10:11:13.192Z,2.78
2023-05-01T10:13:40.560Z,3.10
2023-05-01T10:16:27.393Z,3.22
2023-05-01T10:18:56.611Z,3.28
2023-05-01T10:21:23.924Z,3.60
2023-05-01T10:23:52.156Z,3.28
2023-05-01T10:26:21.124Z,3.10
2023-05-01T10:28:49.506Z,3.30
2023-05-01T10:31:16.933Z,3.30
2023-05-01T10:33:45.024Z,2.97
2023-05-01T10:36:17.596Z,3.58
2023-05-01T10:38:48.258Z,3.45
2023-05-01T10:41:16.585Z,3.72
2023-05-01T10:43:45.266Z,3.30
2023-05-01T10:46:28.097Z,3.37
2023-05-01T10:48:59.463Z,3.10
2023-05-01T10:51:28.347Z,3.55
2023-05-01T10:54:27.193Z,3.35
2023-05-01T10:56:56.253Z,3.78
2023-05-01T10:59:25.062Z,3.43
2023-05-01T11:01:53.106Z,3.80
2023-05-01T11:04:48.322Z,3.70
2023-05-01T11:07:18.270Z,3.72
2023-05-01T11:09:47.247Z,4.00
2023-05-01T11:12:36.188Z,3.97
2023-05-01T11:15:07.808Z,3.42
2023-05-01T11:17:49.633Z,3.30
2023-05-01T11:20:45.713Z,3.35
2023-05-01T11:23:20.483Z,3.53
2023-05-01T11:25:48.485Z,3.20
2023-05-01T11:28:20.733Z,3.47
2023-05-01T11:30:49.502Z,3.65
2023-05-01T11:33:25.945Z,3.70
2023-05-01T11:36:02.796Z,3.50
2023-05-01T11:38:30.430Z,3.47
2023-05-01T11:41:00.496Z,3.55
2023-05-01T11:43:28.050Z,4.28
2023-05-01T11:46:02.302Z,3.65
2023-05-01T11:48:30.402Z,3.70
2023-05-01T11:50:58.081Z,3.60
2023-05-01T11:53:25.677Z,4.30
2023-05-01T11:55:53.219Z,3.75
2023-05-01T11:58:33.940Z,3.63
2023-05-01T12:01:03.291Z,3.92
2023-05-01T12:03:42.384Z,3.47
2023-05-01T12:06:11.694Z,3.70
2023-05-01T12:08:43.043Z,4.00
2023-05-01T12:11:10.971Z,3.85
2023-05-01T12:13:39.980Z,3.60
2023-05-01T12:16:09.565Z,4.30
2023-05-01T12:18:37.206Z,3.83
2023-05-01T12:21:04.718Z,3.80
2023-05-01T12:23:34.155Z,3.50
2023-05-01T12:26:03.365Z,3.70
2023-05-01T12:28:31.838Z,3.70
2023-05-01T12:31:04.954Z,3.78
2023-05-01T12:33:34.274Z,3.92
2023-05-01T12:36:11.150Z,3.65
2023-05-01T12:38:38.575Z,3.90
2023-05-01T12:41:08.808Z,3.90
2023-05-01T12:43:38.123Z,3.78
2023-05-01T12:46:06.871Z,3.97
2023-05-01T12:48:39.273Z,3.72
2023-05-01T12:51:07.667Z,3.83
2023-05-01T12:53:35.378Z,3.90
2023-05-01T12:56:03.394Z,3.42
2023-05-01T12:58:36.244Z,3.90
2023-05-01T13:01:04.192Z,3.63
2023-05-01T13:03:31.948Z,3.83
2023-05-01T13:06:02.125Z,3.80
2023-05-01T13:08:31.458Z,3.67
2023-05-01T13:11:00.179Z,4.07
2023-05-01T13:13:29.405Z,3.92
2023-05-01T13:16:09.079Z,4.60
2023-05-01T13:18:47.381Z,4.30
2023-05-01T13:21:19.331Z,4.40
2023-05-01T13:23:55.658Z,4.10
2023-05-01T13:26:29.256Z,3.97
2023-05-01T13:28:57.312Z,4.05
2023-05-01T13:31:24.775Z,4.20
2023-05-01T13:33:54.769Z,4.20
2023-05-01T13:36:27.093Z,4.40
2023-05-01T13:38:56.970Z,3.72
2023-05-01T13:41:26.150Z,4.13
2023-05-01T13:43:57.142Z,4.50
2023-05-01T13:46:27.121Z,4.30
2023-05-01T13:48:54.671Z,4.32
2023-05-01T13:51:25.232Z,4.35
2023-05-01T13:53:55.636Z,4.20
2023-05-01T13:56:23.336Z,4.30
2023-05-01T13:58:50.995Z,3.80
2023-05-01T14:01:20.706Z,4.35
2023-05-01T14:03:49.344Z,4.35
2023-05-01T14:06:18.601Z,4.25
2023-05-01T14:08:48.538Z,4.70
2023-05-01T14:11:16.109Z,4.40
2023-05-01T14:13:45.372Z,4.13
2023-05-01T14:16:22.029Z,4.53
2023-05-01T14:18:49.602Z,4.28
2023-05-01T14:21:18.632Z,5.00
2023-05-01T14:23:47.405Z,4.75
2023-05-01T14:26:18.358Z,5.10
2023-05-01T14:28:47.941Z,4.53
2023-05-01T14:31:23.849Z,4.60
2023-05-01T14:33:55.356Z,4.30
2023-05-01T14:36:23.020Z,4.45
2023-05-01T14:38:53.142Z,4.80
2023-05-01T14:41:21.096Z,4.78
2023-05-01T14:43:51.267Z,4.53
2023-05-01T14:46:27.720Z,5.07
2023-05-01T14:48:55.491Z,4.63
2023-05-01T14:51:23.182Z,4.50
2023-05-01T14:53:52.389Z,4.60
2023-05-01T14:56:19.918Z,4.70
2023-05-01T14:58:47.447Z,5.07
2023-05-01T15:01:15.196Z,5.30
2023-05-01T15:03:43.901Z,5.00
2023-05-01T15:06:11.657Z,4.85
2023-05-01T15:08:39.439Z,5.05
2023-05-01T15:11:08.621Z,4.93
2023-05-01T15:13:36.609Z,4.57
2023-05-01T15:16:04.468Z,4.47
2023-05-01T15:18:31.971Z,5.00
2023-05-01T15:20:59.395Z,5.22
2023-05-01T15:23:27.826Z,4.70
2023-05-01T15:25:55.417Z,5.05
2023-05-01T15:28:24.923Z,4.75
2023-05-01T15:30:53.312Z,4.80
2023-05-01T15:33:21.198Z,4.85
2023-05-01T15:35:51.017Z,4.90
2023-05-01T15:38:20.517Z,4.75
2023-05-01T15:40:49.913Z,4.55
2023-05-01T15:43:17.542Z,4.85
2023-05-01T15:45:46.526Z,5.10
2023-05-01T15:48:14.235Z,4.93
2023-05-01T15:50:42.405Z,4.70
2023-05-01T15:53:09.876Z,4.47
2023-05-01T15:55:37.642Z,4.63
2023-05-01T15:58:05.133Z,4.68
2023-05-01T16:00:33.746Z,5.03
2023-05-01T16:03:04.761Z,4.90
2023-05-01T16:05:32.711Z,4.95
2023-05-01T16:08:01.004Z,5.22
2023-05-01T16:10:28.500Z,4.78
2023-05-01T16:12:56.012Z,4.83
2023-05-01T16:15:23.670Z,4.50
2023-05-01T16:17:51.990Z,4.88
2023-05-01T16:20:21.355Z,5.00
2023-05-01T16:22:48.933Z,4.43
2023-05-01T16:25:16.773Z,4.90
2023-05-01T16:27:46.498Z,4.80
2023-05-01T16:30:14.780Z,5.55
2023-05-01T16:32:43.292Z,4.90
2023-05-01T16:35:11.435Z,5.50
2023-05-01T16:37:40.330Z,5.43
2023-05-01T16:40:09.344Z,4.68
2023-05-01T16:42:38.791Z,4.88
2023-05-01T16:45:08.814Z,4.90
2023-05-01T16:47:36.447Z,5.55
2023-05-01T16:50:09.619Z,5.40
2023-05-01T16:52:37.071Z,5.47
2023-05-01T16:55:06.687Z,5.88
2023-05-01T16:57:34.244Z,5.35
2023-05-01T17:00:02.156Z,5.40
2023-05-01T17:02:30.013Z,5.17
2023-05-01T17:04:57.401Z,5.22
2023-05-01T17:07:24.820Z,14.80
2023-05-01T17:09:52.453Z,6.30
2023-05-01T17:12:21.245Z,4.95
2023-05-01T17:14:48.606Z,13.40
2023-05-01T17:17:17.884Z,11.70
2023-05-01T17:19:45.830Z,20.00
2023-05-01T17:22:14.021Z,7.57
2023-05-01T17:24:41.636Z,5.88
2023-05-01T17:27:09.326Z,5.40
2023-05-01T17:29:39.199Z,5.80
2023-05-01T17:32:06.901Z,6.20
2023-05-01T17:34:34.556Z,5.75
2023-05-01T17:37:01.967Z,5.97
2023-05-01T17:39:29.350Z,6.03
2023-05-01T17:41:57.137Z,5.55
2023-05-01T17:44:24.661Z,6.20
2023-05-01T17:46:53.517Z,6.68
2023-05-01T17:49:20.943Z,6.35
2023-05-01T17:51:48.316Z,6.33
2023-05-01T17:54:17.510Z,6.50
2023-05-01T17:56:44.981Z,6.25
2023-05-01T17:59:12.767Z,6.50
2023-05-01T18:01:40.187Z,6.20
2023-05-01T18:04:09.556Z,6.33
2023-05-01T18:06:37.273Z,6.32
2023-05-01T18:09:04.878Z,7.32
2023-05-01T18:11:32.402Z,8.27
2023-05-01T18:14:00.017Z,7.28
2023-05-01T18:16:27.417Z,6.80
2023-05-01T18:18:55.007Z,6.85
2023-05-01T18:21:23.920Z,6.78
2023-05-01T18:23:51.472Z,7.13
2023-05-01T18:26:19.247Z,7.25
2023-05-01T18:28:47.295Z,7.73
2023-05-01T18:31:15.826Z,7.18
2023-05-01T18:33:43.267Z,7.47
2023-05-01T18:36:10.703Z,8.48
2023-05-01T18:38:39.600Z,7.35
2023-05-01T18:41:07.203Z,8.00
2023-05-01T18:43:34.618Z,7.10
2023-05-01T18:46:02.129Z,8.07
2023-05-01T18:48:29.992Z,8.30
2023-05-01T18:51:07.980Z,7.93
2023-05-01T18:53:36.721Z,8.10
2023-05-01T18:56:06.211Z,8.65
2023-05-01T18:58:33.728Z,8.15
2023-05-01T19:01:01.144Z,7.65
2023-05-01T19:03:28.645Z,8.57
2023-05-01T19:05:56.150Z,12.73
2023-05-01T19:08:23.566Z,10.07
2023-05-01T19:10:50.978Z,8.70
2023-05-01T19:13:19.723Z,8.88
2023-05-01T19:15:47.361Z,8.00
2023-05-01T19:18:16.160Z,9.83
2023-05-01T19:20:43.682Z,8.98
2023-05-01T19:23:11.095Z,11.27
2023-05-01T19:25:38.471Z,11.25
2023-05-01T19:28:05.896Z,10.13
2023-05-01T19:30:34.526Z,9.80
2023-05-01T19:33:02.048Z,9.98
2023-05-01T19:35:29.561Z,10.45
2023-05-01T19:37:57.792Z,9.75
2023-05-01T19:40:25.388Z,9.65
2023-05-01T19:42:52.753Z,9.93
2023-05-01T19:45:20.186Z,9.75
2023-05-01T19:47:48.967Z,10.18
2023-05-01T19:50:19.185Z,9.70
2023-05-01T19:52:46.585Z,10.23
2023-05-01T19:55:14.963Z,9.73
2023-05-01T19:57:42.411Z,9.68
2023-05-01T20:00:12.226Z,9.68
2023-05-01T20:02:41.632Z,8.75
2023-05-01T20:05:10.955Z,8.90
2023-05-01T20:07:38.405Z,9.80
2023-05-01T20:10:07.079Z,9.80
2023-05-01T20:12:34.708Z,10.77
2023-05-01T20:15:02.139Z,10.63
2023-05-01T20:17:29.698Z,10.07
2023-05-01T20:19:57.230Z,10.20
2023-05-01T20:22:26.139Z,9.93
2023-05-01T20:24:53.488Z,9.65
2023-05-01T20:27:20.917Z,9.90
2023-05-01T20:29:48.346Z,11.02
2023-05-01T20:32:17.254Z,10.27
2023-05-01T20:34:44.566Z,10.82
2023-05-01T20:37:11.991Z,10.68
2023-05-01T20:39:40.673Z,11.27
2023-05-01T20:42:08.357Z,10.85
2023-05-01T20:44:35.823Z,12.83
2023-05-01T20:47:03.540Z,12.73
2023-05-01T20:49:31.004Z,14.10
2023-05-01T20:51:58.580Z,18.15
2023-05-01T20:54:26.050Z,18.23
2023-05-01T20:56:54.795Z,17.50
2023-05-01T20:59:22.230Z,22.08
2023-05-01T21:01:49.766Z,18.83
2023-05-01T21:04:17.282Z,19.25
2023-05-01T21:06:44.651Z,20.65
2023-05-01T21:09:14.856Z,21.13
2023-05-01T21:11:42.457Z,19.70
2023-05-01T21:14:11.566Z,19.75
2023-05-01T21:16:39.871Z,18.85
2023-05-01T21:19:07.585Z,18.70
2023-05-01T21:21:36.048Z,19.47
2023-05-01T21:24:04.439Z,18.23
2023-05-01T21:26:31.918Z,16.85
2023-05-01T21:28:59.491Z,15.95
2023-05-01T21:31:32.550Z,16.83
2023-05-01T21:34:02.377Z,19.63
2023-05-01T21:36:29.756Z,19.98
2023-05-01T21:38:57.131Z,22.63
2023-05-01T21:41:24.407Z,25.83
2023-05-01T21:43:51.820Z,27.73
2023-05-01T21:46:19.565Z,26.30
2023-05-01T21:48:50.728Z,25.10
2023-05-01T21:51:18.597Z,24.77
2023-05-01T21:53:46.044Z,24.23
2023-05-01T21:56:14.355Z,22.98
2023-05-01T21:58:41.854Z,22.27
2023-05-01T22:01:11.840Z,18.48
2023-05-01T22:03:41.572Z,18.38
2023-05-01T22:06:10.486Z,17.15
2023-05-01T22:08:37.896Z,16.10
2023-05-01T22:11:06.597Z,15.63
2023-05-01T22:13:35.728Z,16.70
2023-05-01T22:16:03.770Z,18.38
2023-05-01T22:18:31.413Z,18.95
2023-05-01T22:21:00.056Z,18.50
2023-05-01T22:23:28.679Z,19.80
2023-05-01T22:25:59.994Z,17.92
2023-05-01T22:28:27.654Z,16.52
2023-05-01T22:30:54.943Z,14.75
2023-05-01T22:33:22.510Z,14.13
2023-05-01T22:35:49.777Z,15.23
2023-05-01T22:38:17.103Z,13.30
2023-05-01T22:40:45.688Z,13.18
2023-05-01T22:43:13.365Z,12.38
2023-05-01T22:45:40.661Z,11.20
2023-05-01T22:48:07.936Z,10.80
2023-05-01T22:50:35.222Z,10.65
2023-05-01T22:53:02.471Z,9.82
2023-05-01T22:55:29.770Z,8.60
2023-05-01T22:57:58.410Z,8.32
2023-05-01T23:00:26.264Z,8.07
2023-05-01T23:02:53.582Z,7.82
2023-05-01T23:05:20.961Z,7.78
2023-05-01T23:07:48.443Z,8.18
2023-05-01T23:10:15.675Z,8.25
2023-05-01T23:12:44.517Z,7.30
2023-05-01T23:15:16.237Z,7.60
2023-05-01T23:17:44.113Z,6.88
2023-05-01T23:20:13.583Z,6.93
2023-05-01T23:22:41.435Z,6.93
2023-05-01T23:25:13.750Z,7.23
2023-05-01T23:27:42.717Z,7.40
2023-05-01T23:30:12.062Z,7.22
2023-05-01T23:32:40.914Z,7.50
2023-05-01T23:35:12.430Z,7.30
2023-05-01T23:37:39.702Z,7.30
2023-05-01T23:40:08.150Z,7.70
2023-05-01T23:42:37.553Z,7.55
2023-05-01T23:45:05.804Z,7.68
2023-05-01T23:47:33.650Z,6.95
2023-05-01T23:50:02.566Z,6.70
2023-05-01T23:52:30.261Z,6.63
2023-05-01T23:54:57.524Z,5.90
2023-05-01T23:57:24.857Z,5.55
2023-05-01T23:59:52.540Z,5.68
